Terminal Aerodrome Forecast
Issued by NWS Atlanta, GA

Home | Current Version | Previous Version | Text Only | Print | Product List | Glossary On
Versions: 1 2 3 4 5 6 7 8 9 10 11 12 13 14 15 16 17 18 19 20 21 22 23 24 25 26 27 28 29 30 31 32 33 34 35 36 37 38 39 40
924
FTUS42 KFFC 231514 AAB
TAFAHN
TAF AMD
KAHN 231514Z 2315/2412 14004KT 2SM BR SCT100
      TEMPO 2315/2316 2SM BR BKN004
     FM231600 14002KT 5SM BR BKN015
     FM231800 17009KT P6SM BKN035 BKN100
     FM240000 16007KT P6SM SCT040 BKN120
     FM240500 13004KT P6SM OVC100
     FM240900 14002KT P6SM OVC050=

USA.gov is the U.S. government's official web portal to all federal, state and local government web resources and services.